sensor_id;sensor_type;location;lat;lon;timestamp;P1;durP1;ratioP1;P2;durP2;ratioP2
68377;SDS011;55322;48.146;11.516;2023-04-15T00:00:13;6.90;;;2.30;;
68377;SDS011;55322;48.146;11.516;2023-04-15T00:02:39;9.02;;;2.20;;
68377;SDS011;55322;48.146;11.516;2023-04-15T00:05:05;8.30;;;2.43;;
68377;SDS011;55322;48.146;11.516;2023-04-15T00:07:31;7.00;;;1.80;;
68377;SDS011;55322;48.146;11.516;2023-04-15T00:09:56;8.30;;;2.22;;
68377;SDS011;55322;48.146;11.516;2023-04-15T00:12:26;10.13;;;2.17;;
68377;SDS011;55322;48.146;11.516;2023-04-15T00:14:51;7.75;;;2.42;;
68377;SDS011;55322;48.146;11.516;2023-04-15T00:17:17;6.43;;;2.30;;
68377;SDS011;55322;48.146;11.516;2023-04-15T00:19:43;6.93;;;2.10;;
68377;SDS011;55322;48.146;11.516;2023-04-15T00:22:11;10.70;;;2.35;;
68377;SDS011;55322;48.146;11.516;2023-04-15T00:24:37;8.47;;;2.30;;
68377;SDS011;55322;48.146;11.516;2023-04-15T00:27:03;7.80;;;2.20;;
68377;SDS011;55322;48.146;11.516;2023-04-15T00:29:28;7.00;;;2.50;;
68377;SDS011;55322;48.146;11.516;2023-04-15T00:31:54;7.30;;;2.25;;
68377;SDS011;55322;48.146;11.516;2023-04-15T00:34:21;6.80;;;2.30;;
68377;SDS011;55322;48.146;11.516;2023-04-15T00:36:47;8.43;;;2.43;;
68377;SDS011;55322;48.146;11.516;2023-04-15T00:39:12;7.90;;;2.70;;
68377;SDS011;55322;48.146;11.516;2023-04-15T00:41:38;7.90;;;2.37;;
68377;SDS011;55322;48.146;11.516;2023-04-15T00:44:04;8.77;;;2.47;;
68377;SDS011;55322;48.146;11.516;2023-04-15T00:46:30;6.80;;;2.30;;
68377;SDS011;55322;48.146;11.516;2023-04-15T00:48:59;7.00;;;2.20;;
68377;SDS011;55322;48.146;11.516;2023-04-15T00:51:26;8.65;;;2.30;;
68377;SDS011;55322;48.146;11.516;2023-04-15T00:53:51;7.83;;;2.40;;
68377;SDS011;55322;48.146;11.516;2023-04-15T00:56:17;10.17;;;2.50;;
68377;SDS011;55322;48.146;11.516;2023-04-15T00:58:46;7.75;;;2.10;;
68377;SDS011;55322;48.146;11.516;2023-04-15T01:01:12;7.57;;;2.10;;
68377;SDS011;55322;48.146;11.516;2023-04-15T01:03:37;10.43;;;2.53;;
68377;SDS011;55322;48.146;11.516;2023-04-15T01:06:02;9.10;;;2.37;;
68377;SDS011;55322;48.146;11.516;2023-04-15T01:08:28;9.10;;;2.80;;
68377;SDS011;55322;48.146;11.516;2023-04-15T01:10:55;8.10;;;2.65;;
68377;SDS011;55322;48.146;11.516;2023-04-15T01:13:22;8.45;;;2.30;;
68377;SDS011;55322;48.146;11.516;2023-04-15T01:15:48;9.77;;;2.73;;
68377;SDS011;55322;48.146;11.516;2023-04-15T01:18:14;7.38;;;2.80;;
68377;SDS011;55322;48.146;11.516;2023-04-15T01:20:40;9.15;;;3.03;;
68377;SDS011;55322;48.146;11.516;2023-04-15T01:23:05;9.37;;;2.33;;
68377;SDS011;55322;48.146;11.516;2023-04-15T01:25:31;8.23;;;2.37;;
68377;SDS011;55322;48.146;11.516;2023-04-15T01:27:58;8.23;;;2.47;;
68377;SDS011;55322;48.146;11.516;2023-04-15T01:30:23;8.32;;;2.67;;
68377;SDS011;55322;48.146;11.516;2023-04-15T01:32:49;7.37;;;2.50;;
68377;SDS011;55322;48.146;11.516;2023-04-15T01:35:15;9.85;;;3.00;;
68377;SDS011;55322;48.146;11.516;2023-04-15T01:37:41;9.35;;;2.85;;
68377;SDS011;55322;48.146;11.516;2023-04-15T01:40:06;7.87;;;2.80;;
68377;SDS011;55322;48.146;11.516;2023-04-15T01:42:33;6.77;;;2.43;;
68377;SDS011;55322;48.146;11.516;2023-04-15T01:45:00;7.75;;;2.58;;
68377;SDS011;55322;48.146;11.516;2023-04-15T01:47:25;7.70;;;2.43;;
68377;SDS011;55322;48.146;11.516;2023-04-15T01:49:51;8.35;;;2.78;;
68377;SDS011;55322;48.146;11.516;2023-04-15T01:52:17;8.70;;;2.80;;
68377;SDS011;55322;48.146;11.516;2023-04-15T01:54:42;7.57;;;2.70;;
68377;SDS011;55322;48.146;11.516;2023-04-15T01:57:07;8.97;;;2.40;;
68377;SDS011;55322;48.146;11.516;2023-04-15T01:59:33;7.28;;;2.38;;
68377;SDS011;55322;48.146;11.516;2023-04-15T02:01:59;6.73;;;2.73;;
68377;SDS011;55322;48.146;11.516;2023-04-15T02:04:24;10.77;;;2.70;;
68377;SDS011;55322;48.146;11.516;2023-04-15T02:06:49;7.70;;;2.60;;
68377;SDS011;55322;48.146;11.516;2023-04-15T02:09:15;9.00;;;3.17;;
68377;SDS011;55322;48.146;11.516;2023-04-15T02:11:40;8.10;;;2.55;;
68377;SDS011;55322;48.146;11.516;2023-04-15T02:14:06;7.07;;;2.60;;
68377;SDS011;55322;48.146;11.516;2023-04-15T02:16:32;9.00;;;2.73;;
68377;SDS011;55322;48.146;11.516;2023-04-15T02:18:58;8.85;;;2.67;;
68377;SDS011;55322;48.146;11.516;2023-04-15T02:21:25;7.90;;;2.92;;
68377;SDS011;55322;48.146;11.516;2023-04-15T02:23:50;9.30;;;2.60;;
68377;SDS011;55322;48.146;11.516;2023-04-15T02:26:17;7.78;;;2.60;;
68377;SDS011;55322;48.146;11.516;2023-04-15T02:28:43;8.43;;;2.33;;
68377;SDS011;55322;48.146;11.516;2023-04-15T02:31:08;8.40;;;2.50;;
68377;SDS011;55322;48.146;11.516;2023-04-15T02:33:34;9.43;;;2.63;;
68377;SDS011;55322;48.146;11.516;2023-04-15T02:36:01;9.18;;;2.58;;
68377;SDS011;55322;48.146;11.516;2023-04-15T02:38:26;9.80;;;2.70;;
68377;SDS011;55322;48.146;11.516;2023-04-15T02:40:51;11.00;;;2.75;;
68377;SDS011;55322;48.146;11.516;2023-04-15T02:43:17;10.43;;;2.70;;
68377;SDS011;55322;48.146;11.516;2023-04-15T02:45:44;9.00;;;2.60;;
68377;SDS011;55322;48.146;11.516;2023-04-15T02:48:11;8.00;;;2.58;;
68377;SDS011;55322;48.146;11.516;2023-04-15T02:50:36;10.07;;;2.60;;
68377;SDS011;55322;48.146;11.516;2023-04-15T02:53:03;10.32;;;2.85;;
68377;SDS011;55322;48.146;11.516;2023-04-15T02:55:29;8.68;;;2.50;;
68377;SDS011;55322;48.146;11.516;2023-04-15T02:57:55;10.30;;;2.73;;
68377;SDS011;55322;48.146;11.516;2023-04-15T03:00:22;7.75;;;2.28;;
68377;SDS011;55322;48.146;11.516;2023-04-15T03:02:49;7.53;;;2.53;;
68377;SDS011;55322;48.146;11.516;2023-04-15T03:05:20;7.60;;;2.75;;
68377;SDS011;55322;48.146;11.516;2023-04-15T03:07:49;7.47;;;2.15;;
68377;SDS011;55322;48.146;11.516;2023-04-15T03:10:15;11.37;;;3.20;;
68377;SDS011;55322;48.146;11.516;2023-04-15T03:12:40;9.33;;;2.70;;
68377;SDS011;55322;48.146;11.516;2023-04-15T03:15:07;8.02;;;2.22;;
68377;SDS011;55322;48.146;11.516;2023-04-15T03:17:33;8.90;;;2.60;;
68377;SDS011;55322;48.146;11.516;2023-04-15T03:20:00;9.15;;;2.10;;
68377;SDS011;55322;48.146;11.516;2023-04-15T03:22:27;7.40;;;2.28;;
68377;SDS011;55322;48.146;11.516;2023-04-15T03:24:52;7.70;;;2.43;;
68377;SDS011;55322;48.146;11.516;2023-04-15T03:27:17;7.00;;;2.10;;
68377;SDS011;55322;48.146;11.516;2023-04-15T03:29:43;6.70;;;2.20;;
68377;SDS011;55322;48.146;11.516;2023-04-15T03:32:08;8.67;;;2.20;;
68377;SDS011;55322;48.146;11.516;2023-04-15T03:34:33;8.53;;;2.67;;
68377;SDS011;55322;48.146;11.516;2023-04-15T03:36:59;8.47;;;2.80;;
68377;SDS011;55322;48.146;11.516;2023-04-15T03:39:25;7.10;;;2.15;;
68377;SDS011;55322;48.146;11.516;2023-04-15T03:41:50;6.97;;;2.10;;
68377;SDS011;55322;48.146;11.516;2023-04-15T03:44:15;10.20;;;2.60;;
68377;SDS011;55322;48.146;11.516;2023-04-15T03:46:41;8.13;;;2.43;;
68377;SDS011;55322;48.146;11.516;2023-04-15T03:49:06;6.63;;;2.10;;
68377;SDS011;55322;48.146;11.516;2023-04-15T03:51:31;8.03;;;2.43;;
68377;SDS011;55322;48.146;11.516;2023-04-15T03:53:57;6.73;;;2.03;;
68377;SDS011;55322;48.146;11.516;2023-04-15T03:56:22;8.10;;;2.20;;
68377;SDS011;55322;48.146;11.516;2023-04-15T03:58:48;7.40;;;2.30;;
68377;SDS011;55322;48.146;11.516;2023-04-15T04:01:13;7.07;;;2.10;;
68377;SDS011;55322;48.146;11.516;2023-04-15T04:03:39;7.40;;;2.03;;
68377;SDS011;55322;48.146;11.516;2023-04-15T04:06:04;8.17;;;1.80;;
68377;SDS011;55322;48.146;11.516;2023-04-15T04:08:30;7.63;;;2.13;;
68377;SDS011;55322;48.146;11.516;2023-04-15T04:10:55;8.00;;;2.30;;
68377;SDS011;55322;48.146;11.516;2023-04-15T04:13:20;7.73;;;2.20;;
68377;SDS011;55322;48.146;11.516;2023-04-15T04:15:46;7.50;;;2.30;;
68377;SDS011;55322;48.146;11.516;2023-04-15T04:18:11;6.70;;;1.83;;
68377;SDS011;55322;48.146;11.516;2023-04-15T04:20:36;8.93;;;2.03;;
68377;SDS011;55322;48.146;11.516;2023-04-15T04:23:02;7.70;;;2.10;;
68377;SDS011;55322;48.146;11.516;2023-04-15T04:25:27;7.93;;;2.38;;
68377;SDS011;55322;48.146;11.516;2023-04-15T04:27:52;7.37;;;2.10;;
68377;SDS011;55322;48.146;11.516;2023-04-15T04:30:18;8.70;;;2.27;;
68377;SDS011;55322;48.146;11.516;2023-04-15T04:32:43;9.47;;;2.20;;
68377;SDS011;55322;48.146;11.516;2023-04-15T04:35:09;6.70;;;2.17;;
68377;SDS011;55322;48.146;11.516;2023-04-15T04:37:35;7.80;;;2.20;;
68377;SDS011;55322;48.146;11.516;2023-04-15T04:40:00;7.13;;;1.97;;
68377;SDS011;55322;48.146;11.516;2023-04-15T04:42:26;6.77;;;1.80;;
68377;SDS011;55322;48.146;11.516;2023-04-15T04:44:51;9.48;;;1.73;;
68377;SDS011;55322;48.146;11.516;2023-04-15T04:47:16;7.17;;;2.07;;
68377;SDS011;55322;48.146;11.516;2023-04-15T04:49:42;8.33;;;1.87;;
68377;SDS011;55322;48.146;11.516;2023-04-15T04:52:07;7.63;;;1.93;;
68377;SDS011;55322;48.146;11.516;2023-04-15T04:54:32;9.17;;;1.80;;
68377;SDS011;55322;48.146;11.516;2023-04-15T04:56:58;7.70;;;1.57;;
68377;SDS011;55322;48.146;11.516;2023-04-15T04:59:24;5.85;;;1.77;;
68377;SDS011;55322;48.146;11.516;2023-04-15T05:01:49;9.30;;;2.00;;
68377;SDS011;55322;48.146;11.516;2023-04-15T05:04:15;6.53;;;1.40;;
68377;SDS011;55322;48.146;11.516;2023-04-15T05:06:40;5.50;;;1.70;;
68377;SDS011;55322;48.146;11.516;2023-04-15T05:09:06;6.97;;;1.90;;
68377;SDS011;55322;48.146;11.516;2023-04-15T05:11:32;6.07;;;1.60;;
68377;SDS011;55322;48.146;11.516;2023-04-15T05:13:57;7.93;;;1.80;;
68377;SDS011;55322;48.146;11.516;2023-04-15T05:16:23;9.70;;;1.77;;
68377;SDS011;55322;48.146;11.516;2023-04-15T05:18:49;6.78;;;1.63;;
68377;SDS011;55322;48.146;11.516;2023-04-15T05:21:15;7.17;;;1.67;;
68377;SDS011;55322;48.146;11.516;2023-04-15T05:23:41;6.03;;;1.50;;
68377;SDS011;55322;48.146;11.516;2023-04-15T05:26:06;6.63;;;1.50;;
68377;SDS011;55322;48.146;11.516;2023-04-15T05:28:31;5.83;;;1.70;;
68377;SDS011;55322;48.146;11.516;2023-04-15T05:30:57;5.73;;;1.47;;
68377;SDS011;55322;48.146;11.516;2023-04-15T05:33:22;8.40;;;1.80;;
68377;SDS011;55322;48.146;11.516;2023-04-15T05:35:48;6.63;;;1.40;;
68377;SDS011;55322;48.146;11.516;2023-04-15T05:38:13;5.73;;;1.50;;
68377;SDS011;55322;48.146;11.516;2023-04-15T05:40:38;7.50;;;1.67;;
68377;SDS011;55322;48.146;11.516;2023-04-15T05:43:03;6.07;;;1.20;;
68377;SDS011;55322;48.146;11.516;2023-04-15T05:45:29;6.93;;;1.53;;
68377;SDS011;55322;48.146;11.516;2023-04-15T05:47:54;5.33;;;1.13;;
68377;SDS011;55322;48.146;11.516;2023-04-15T05:50:20;5.67;;;1.30;;
68377;SDS011;55322;48.146;11.516;2023-04-15T05:52:45;6.43;;;1.47;;
68377;SDS011;55322;48.146;11.516;2023-04-15T05:55:11;7.28;;;1.35;;
68377;SDS011;55322;48.146;11.516;2023-04-15T05:57:36;7.67;;;1.30;;
68377;SDS011;55322;48.146;11.516;2023-04-15T06:00:02;6.40;;;1.10;;
68377;SDS011;55322;48.146;11.516;2023-04-15T06:02:29;6.43;;;1.35;;
68377;SDS011;55322;48.146;11.516;2023-04-15T06:04:55;7.38;;;1.70;;
68377;SDS011;55322;48.146;11.516;2023-04-15T06:07:21;5.63;;;1.23;;
68377;SDS011;55322;48.146;11.516;2023-04-15T06:09:47;6.00;;;1.30;;
68377;SDS011;55322;48.146;11.516;2023-04-15T06:12:12;5.90;;;1.30;;
68377;SDS011;55322;48.146;11.516;2023-04-15T06:14:38;5.27;;;1.10;;
68377;SDS011;55322;48.146;11.516;2023-04-15T06:17:04;7.80;;;1.10;;
68377;SDS011;55322;48.146;11.516;2023-04-15T06:19:29;6.13;;;1.47;;
68377;SDS011;55322;48.146;11.516;2023-04-15T06:21:55;5.47;;;1.38;;
68377;SDS011;55322;48.146;11.516;2023-04-15T06:24:22;6.63;;;1.00;;
68377;SDS011;55322;48.146;11.516;2023-04-15T06:26:47;6.55;;;1.10;;
68377;SDS011;55322;48.146;11.516;2023-04-15T06:29:13;5.93;;;1.17;;
68377;SDS011;55322;48.146;11.516;2023-04-15T06:31:38;8.47;;;1.30;;
68377;SDS011;55322;48.146;11.516;2023-04-15T06:34:03;4.57;;;0.90;;
68377;SDS011;55322;48.146;11.516;2023-04-15T06:36:29;6.37;;;1.40;;
68377;SDS011;55322;48.146;11.516;2023-04-15T06:38:54;6.43;;;1.10;;
68377;SDS011;55322;48.146;11.516;2023-04-15T06:41:21;4.55;;;0.95;;
68377;SDS011;55322;48.146;11.516;2023-04-15T06:43:46;4.80;;;0.90;;
68377;SDS011;55322;48.146;11.516;2023-04-15T06:46:12;5.20;;;1.10;;
68377;SDS011;55322;48.146;11.516;2023-04-15T06:48:37;6.63;;;1.53;;
68377;SDS011;55322;48.146;11.516;2023-04-15T06:51:03;5.97;;;1.00;;
68377;SDS011;55322;48.146;11.516;2023-04-15T06:53:28;5.40;;;0.90;;
68377;SDS011;55322;48.146;11.516;2023-04-15T06:55:53;7.20;;;1.10;;
68377;SDS011;55322;48.146;11.516;2023-04-15T06:58:19;6.20;;;1.30;;
68377;SDS011;55322;48.146;11.516;2023-04-15T07:00:45;6.57;;;1.20;;
68377;SDS011;55322;48.146;11.516;2023-04-15T07:03:11;6.73;;;1.10;;
68377;SDS011;55322;48.146;11.516;2023-04-15T07:05:37;4.68;;;0.93;;
68377;SDS011;55322;48.146;11.516;2023-04-15T07:08:03;5.82;;;1.10;;
68377;SDS011;55322;48.146;11.516;2023-04-15T07:10:28;5.33;;;1.30;;
68377;SDS011;55322;48.146;11.516;2023-04-15T07:12:54;6.68;;;0.98;;
68377;SDS011;55322;48.146;11.516;2023-04-15T07:15:20;4.93;;;0.90;;
68377;SDS011;55322;48.146;11.516;2023-04-15T07:17:46;5.97;;;1.20;;
68377;SDS011;55322;48.146;11.516;2023-04-15T07:20:11;6.57;;;1.10;;
68377;SDS011;55322;48.146;11.516;2023-04-15T07:22:37;5.28;;;0.98;;
68377;SDS011;55322;48.146;11.516;2023-04-15T07:25:03;5.23;;;1.20;;
68377;SDS011;55322;48.146;11.516;2023-04-15T07:27:29;5.63;;;1.00;;
68377;SDS011;55322;48.146;11.516;2023-04-15T07:29:55;5.40;;;1.10;;
68377;SDS011;55322;48.146;11.516;2023-04-15T07:32:20;4.90;;;0.87;;
68377;SDS011;55322;48.146;11.516;2023-04-15T07:34:45;7.20;;;1.00;;
68377;SDS011;55322;48.146;11.516;2023-04-15T07:37:11;6.20;;;0.70;;
68377;SDS011;55322;48.146;11.516;2023-04-15T07:39:36;5.45;;;1.10;;
68377;SDS011;55322;48.146;11.516;2023-04-15T07:42:02;5.90;;;0.93;;
68377;SDS011;55322;48.146;11.516;2023-04-15T07:44:28;5.28;;;1.20;;
68377;SDS011;55322;48.146;11.516;2023-04-15T07:46:54;5.60;;;1.00;;
68377;SDS011;55322;48.146;11.516;2023-04-15T07:49:20;5.07;;;0.90;;
68377;SDS011;55322;48.146;11.516;2023-04-15T07:51:45;5.03;;;1.13;;
68377;SDS011;55322;48.146;11.516;2023-04-15T07:54:11;5.78;;;1.20;;
68377;SDS011;55322;48.146;11.516;2023-04-15T07:56:36;4.60;;;0.90;;
68377;SDS011;55322;48.146;11.516;2023-04-15T07:59:01;5.63;;;0.93;;
68377;SDS011;55322;48.146;11.516;2023-04-15T08:01:28;5.00;;;0.93;;
68377;SDS011;55322;48.146;11.516;2023-04-15T08:03:54;5.82;;;1.08;;
68377;SDS011;55322;48.146;11.516;2023-04-15T08:06:20;4.40;;;0.93;;
68377;SDS011;55322;48.146;11.516;2023-04-15T08:08:45;9.07;;;1.50;;
68377;SDS011;55322;48.146;11.516;2023-04-15T08:11:11;5.43;;;1.00;;
68377;SDS011;55322;48.146;11.516;2023-04-15T08:13:37;5.57;;;1.13;;
68377;SDS011;55322;48.146;11.516;2023-04-15T08:18:48;5.47;;;1.00;;
68377;SDS011;55322;48.146;11.516;2023-04-15T08:21:15;5.32;;;1.25;;
68377;SDS011;55322;48.146;11.516;2023-04-15T08:23:41;5.90;;;1.20;;
68377;SDS011;55322;48.146;11.516;2023-04-15T08:26:07;5.93;;;1.25;;
68377;SDS011;55322;48.146;11.516;2023-04-15T08:28:33;5.80;;;1.00;;
68377;SDS011;55322;48.146;11.516;2023-04-15T08:30:59;5.72;;;1.23;;
68377;SDS011;55322;48.146;11.516;2023-04-15T08:33:25;4.77;;;0.90;;
68377;SDS011;55322;48.146;11.516;2023-04-15T08:35:50;6.70;;;1.10;;
68377;SDS011;55322;48.146;11.516;2023-04-15T08:38:16;5.60;;;1.07;;
68377;SDS011;55322;48.146;11.516;2023-04-15T08:40:43;5.57;;;1.30;;
68377;SDS011;55322;48.146;11.516;2023-04-15T08:43:10;6.30;;;1.23;;
68377;SDS011;55322;48.146;11.516;2023-04-15T08:45:39;7.68;;;1.23;;
68377;SDS011;55322;48.146;11.516;2023-04-15T08:50:34;6.40;;;1.20;;
68377;SDS011;55322;48.146;11.516;2023-04-15T08:52:59;6.30;;;1.20;;
68377;SDS011;55322;48.146;11.516;2023-04-15T08:55:26;7.35;;;1.20;;
68377;SDS011;55322;48.146;11.516;2023-04-15T08:57:54;5.13;;;1.07;;
68377;SDS011;55322;48.146;11.516;2023-04-15T09:00:20;6.88;;;1.13;;
68377;SDS011;55322;48.146;11.516;2023-04-15T09:02:47;4.50;;;1.00;;
68377;SDS011;55322;48.146;11.516;2023-04-15T09:05:12;4.60;;;1.13;;
68377;SDS011;55322;48.146;11.516;2023-04-15T09:07:38;5.33;;;1.10;;
68377;SDS011;55322;48.146;11.516;2023-04-15T09:10:03;5.07;;;1.13;;
68377;SDS011;55322;48.146;11.516;2023-04-15T09:12:29;7.15;;;1.33;;
68377;SDS011;55322;48.146;11.516;2023-04-15T09:14:55;5.17;;;1.10;;
68377;SDS011;55322;48.146;11.516;2023-04-15T09:17:21;5.82;;;1.42;;
68377;SDS011;55322;48.146;11.516;2023-04-15T09:19:48;5.63;;;1.63;;
68377;SDS011;55322;48.146;11.516;2023-04-15T09:22:30;7.57;;;1.60;;
68377;SDS011;55322;48.146;11.516;2023-04-15T09:24:56;5.28;;;1.50;;
68377;SDS011;55322;48.146;11.516;2023-04-15T09:27:21;5.63;;;1.43;;
68377;SDS011;55322;48.146;11.516;2023-04-15T09:29:48;7.17;;;1.57;;
68377;SDS011;55322;48.146;11.516;2023-04-15T09:32:15;7.38;;;1.55;;
68377;SDS011;55322;48.146;11.516;2023-04-15T09:34:41;5.70;;;1.70;;
68377;SDS011;55322;48.146;11.516;2023-04-15T09:37:06;6.55;;;1.70;;
68377;SDS011;55322;48.146;11.516;2023-04-15T09:39:44;6.18;;;1.75;;
68377;SDS011;55322;48.146;11.516;2023-04-15T09:42:14;9.50;;;1.90;;
68377;SDS011;55322;48.146;11.516;2023-04-15T09:44:41;5.87;;;1.63;;
68377;SDS011;55322;48.146;11.516;2023-04-15T09:47:07;5.88;;;1.80;;
68377;SDS011;55322;48.146;11.516;2023-04-15T09:49:32;9.00;;;2.00;;
68377;SDS011;55322;48.146;11.516;2023-04-15T09:52:01;5.67;;;1.73;;
68377;SDS011;55322;48.146;11.516;2023-04-15T09:54:31;6.30;;;1.77;;
68377;SDS011;55322;48.146;11.516;2023-04-15T09:57:03;5.28;;;1.75;;
68377;SDS011;55322;48.146;11.516;2023-04-15T09:59:29;6.40;;;1.60;;
68377;SDS011;55322;48.146;11.516;2023-04-15T10:01:54;6.90;;;2.10;;
68377;SDS011;55322;48.146;11.516;2023-04-15T10:04:21;6.30;;;1.85;;
68377;SDS011;55322;48.146;11.516;2023-04-15T10:06:47;6.53;;;1.90;;
68377;SDS011;55322;48.146;11.516;2023-04-15T10:09:12;6.60;;;2.10;;
68377;SDS011;55322;48.146;11.516;2023-04-15T10:11:38;8.50;;;2.13;;
68377;SDS011;55322;48.146;11.516;2023-04-15T10:14:04;7.80;;;1.77;;
68377;SDS011;55322;48.146;11.516;2023-04-15T10:16:31;8.30;;;1.80;;
68377;SDS011;55322;48.146;11.516;2023-04-15T10:19:00;5.57;;;1.95;;
68377;SDS011;55322;48.146;11.516;2023-04-15T10:21:29;9.43;;;2.10;;
68377;SDS011;55322;48.146;11.516;2023-04-15T10:23:54;6.03;;;2.10;;
68377;SDS011;55322;48.146;11.516;2023-04-15T10:26:21;7.47;;;1.95;;
68377;SDS011;55322;48.146;11.516;2023-04-15T10:28:46;6.77;;;2.20;;
68377;SDS011;55322;48.146;11.516;2023-04-15T10:31:12;7.20;;;2.38;;
68377;SDS011;55322;48.146;11.516;2023-04-15T10:33:39;7.55;;;2.83;;
68377;SDS011;55322;48.146;11.516;2023-04-15T10:36:06;7.27;;;2.30;;
68377;SDS011;55322;48.146;11.516;2023-04-15T10:38:42;7.10;;;2.60;;
68377;SDS011;55322;48.146;11.516;2023-04-15T10:43:38;7.28;;;2.33;;
68377;SDS011;55322;48.146;11.516;2023-04-15T10:46:06;8.70;;;2.50;;
68377;SDS011;55322;48.146;11.516;2023-04-15T10:48:31;6.72;;;2.25;;
68377;SDS011;55322;48.146;11.516;2023-04-15T10:50:57;7.17;;;2.30;;
68377;SDS011;55322;48.146;11.516;2023-04-15T10:53:27;6.45;;;2.38;;
68377;SDS011;55322;48.146;11.516;2023-04-15T10:55:53;8.40;;;2.45;;
68377;SDS011;55322;48.146;11.516;2023-04-15T10:58:22;7.20;;;2.30;;
68377;SDS011;55322;48.146;11.516;2023-04-15T11:00:49;6.20;;;2.40;;
68377;SDS011;55322;48.146;11.516;2023-04-15T11:03:30;8.45;;;2.80;;
68377;SDS011;55322;48.146;11.516;2023-04-15T11:06:01;6.53;;;2.50;;
68377;SDS011;55322;48.146;11.516;2023-04-15T11:11:22;8.05;;;2.92;;
68377;SDS011;55322;48.146;11.516;2023-04-15T11:14:08;6.75;;;2.70;;
68377;SDS011;55322;48.146;11.516;2023-04-15T11:16:42;7.72;;;2.53;;
68377;SDS011;55322;48.146;11.516;2023-04-15T11:19:08;8.00;;;2.70;;
68377;SDS011;55322;48.146;11.516;2023-04-15T11:21:34;7.87;;;2.40;;
68377;SDS011;55322;48.146;11.516;2023-04-15T11:24:00;7.93;;;2.70;;
68377;SDS011;55322;48.146;11.516;2023-04-15T11:26:25;8.57;;;2.53;;
68377;SDS011;55322;48.146;11.516;2023-04-15T11:28:51;6.50;;;2.30;;
68377;SDS011;55322;48.146;11.516;2023-04-15T11:31:16;7.80;;;2.93;;
68377;SDS011;55322;48.146;11.516;2023-04-15T11:33:44;9.60;;;2.75;;
68377;SDS011;55322;48.146;11.516;2023-04-15T11:36:20;9.82;;;3.20;;
68377;SDS011;55322;48.146;11.516;2023-04-15T11:38:48;7.70;;;2.80;;
68377;SDS011;55322;48.146;11.516;2023-04-15T11:41:13;8.13;;;2.77;;
68377;SDS011;55322;48.146;11.516;2023-04-15T11:43:40;7.93;;;2.90;;
68377;SDS011;55322;48.146;11.516;2023-04-15T11:46:05;8.00;;;2.80;;
68377;SDS011;55322;48.146;11.516;2023-04-15T11:48:31;7.47;;;2.63;;
68377;SDS011;55322;48.146;11.516;2023-04-15T11:51:05;7.15;;;2.92;;
68377;SDS011;55322;48.146;11.516;2023-04-15T11:56:10;6.33;;;2.63;;
68377;SDS011;55322;48.146;11.516;2023-04-15T11:58:43;7.93;;;3.03;;
68377;SDS011;55322;48.146;11.516;2023-04-15T12:01:10;7.78;;;2.67;;
68377;SDS011;55322;48.146;11.516;2023-04-15T12:03:36;8.03;;;2.83;;
68377;SDS011;55322;48.146;11.516;2023-04-15T12:06:04;8.27;;;2.60;;
68377;SDS011;55322;48.146;11.516;2023-04-15T12:11:17;7.65;;;2.78;;
68377;SDS011;55322;48.146;11.516;2023-04-15T12:16:52;7.03;;;2.58;;
68377;SDS011;55322;48.146;11.516;2023-04-15T12:19:25;6.43;;;2.60;;
68377;SDS011;55322;48.146;11.516;2023-04-15T12:21:53;6.53;;;2.70;;
68377;SDS011;55322;48.146;11.516;2023-04-15T12:24:23;6.65;;;3.00;;
68377;SDS011;55322;48.146;11.516;2023-04-15T12:26:49;12.30;;;3.80;;
68377;SDS011;55322;48.146;11.516;2023-04-15T12:29:17;7.63;;;2.67;;
68377;SDS011;55322;48.146;11.516;2023-04-15T12:31:46;7.97;;;2.50;;
68377;SDS011;55322;48.146;11.516;2023-04-15T12:34:13;7.82;;;2.70;;
68377;SDS011;55322;48.146;11.516;2023-04-15T12:36:38;6.60;;;2.78;;
68377;SDS011;55322;48.146;11.516;2023-04-15T12:39:04;8.40;;;2.60;;
68377;SDS011;55322;48.146;11.516;2023-04-15T12:41:30;9.13;;;2.50;;
68377;SDS011;55322;48.146;11.516;2023-04-15T12:43:56;8.38;;;2.38;;
68377;SDS011;55322;48.146;11.516;2023-04-15T12:46:21;9.10;;;2.00;;
68377;SDS011;55322;48.146;11.516;2023-04-15T12:48:47;6.80;;;2.10;;
68377;SDS011;55322;48.146;11.516;2023-04-15T12:51:13;6.85;;;2.08;;
68377;SDS011;55322;48.146;11.516;2023-04-15T12:53:39;7.57;;;1.90;;
68377;SDS011;55322;48.146;11.516;2023-04-15T12:56:04;5.50;;;1.70;;
68377;SDS011;55322;48.146;11.516;2023-04-15T12:58:30;5.85;;;1.90;;
68377;SDS011;55322;48.146;11.516;2023-04-15T13:00:56;6.75;;;1.95;;
68377;SDS011;55322;48.146;11.516;2023-04-15T13:03:21;7.03;;;1.67;;
68377;SDS011;55322;48.146;11.516;2023-04-15T13:05:46;5.93;;;1.70;;
68377;SDS011;55322;48.146;11.516;2023-04-15T13:08:12;5.83;;;2.00;;
68377;SDS011;55322;48.146;11.516;2023-04-15T13:10:37;6.10;;;1.90;;
68377;SDS011;55322;48.146;11.516;2023-04-15T13:13:03;6.73;;;1.63;;
68377;SDS011;55322;48.146;11.516;2023-04-15T13:15:29;7.63;;;1.85;;
68377;SDS011;55322;48.146;11.516;2023-04-15T13:17:54;5.63;;;1.83;;
68377;SDS011;55322;48.146;11.516;2023-04-15T13:20:20;10.10;;;2.10;;
68377;SDS011;55322;48.146;11.516;2023-04-15T13:22:46;7.40;;;1.70;;
68377;SDS011;55322;48.146;11.516;2023-04-15T13:25:11;7.60;;;2.23;;
68377;SDS011;55322;48.146;11.516;2023-04-15T13:27:36;6.33;;;2.27;;
68377;SDS011;55322;48.146;11.516;2023-04-15T13:30:02;7.20;;;2.22;;
68377;SDS011;55322;48.146;11.516;2023-04-15T13:32:29;7.45;;;2.30;;
68377;SDS011;55322;48.146;11.516;2023-04-15T13:34:54;7.87;;;2.00;;
68377;SDS011;55322;48.146;11.516;2023-04-15T13:37:21;6.80;;;2.17;;
68377;SDS011;55322;48.146;11.516;2023-04-15T13:39:53;8.48;;;2.03;;
68377;SDS011;55322;48.146;11.516;2023-04-15T13:42:20;5.75;;;1.80;;
68377;SDS011;55322;48.146;11.516;2023-04-15T13:44:45;7.75;;;2.40;;
68377;SDS011;55322;48.146;11.516;2023-04-15T13:47:11;8.90;;;2.40;;
68377;SDS011;55322;48.146;11.516;2023-04-15T13:49:37;7.25;;;2.47;;
68377;SDS011;55322;48.146;11.516;2023-04-15T13:52:02;7.40;;;2.67;;
68377;SDS011;55322;48.146;11.516;2023-04-15T13:54:27;6.47;;;2.57;;
68377;SDS011;55322;48.146;11.516;2023-04-15T13:56:53;8.53;;;2.60;;
68377;SDS011;55322;48.146;11.516;2023-04-15T13:59:20;7.90;;;2.70;;
68377;SDS011;55322;48.146;11.516;2023-04-15T14:01:45;7.97;;;3.10;;
68377;SDS011;55322;48.146;11.516;2023-04-15T14:04:10;7.05;;;2.85;;
68377;SDS011;55322;48.146;11.516;2023-04-15T14:06:36;7.83;;;2.50;;
68377;SDS011;55322;48.146;11.516;2023-04-15T14:09:01;10.63;;;2.60;;
68377;SDS011;55322;48.146;11.516;2023-04-15T14:11:26;6.80;;;2.30;;
68377;SDS011;55322;48.146;11.516;2023-04-15T14:13:52;6.47;;;2.03;;
68377;SDS011;55322;48.146;11.516;2023-04-15T14:16:17;7.53;;;2.23;;
68377;SDS011;55322;48.146;11.516;2023-04-15T14:18:43;6.57;;;2.20;;
68377;SDS011;55322;48.146;11.516;2023-04-15T14:21:08;8.60;;;2.20;;
68377;SDS011;55322;48.146;11.516;2023-04-15T14:23:34;5.97;;;1.90;;
68377;SDS011;55322;48.146;11.516;2023-04-15T14:25:59;6.65;;;1.90;;
68377;SDS011;55322;48.146;11.516;2023-04-15T14:28:24;5.83;;;1.87;;
68377;SDS011;55322;48.146;11.516;2023-04-15T14:30:50;6.93;;;1.77;;
68377;SDS011;55322;48.146;11.516;2023-04-15T14:33:15;5.67;;;1.90;;
68377;SDS011;55322;48.146;11.516;2023-04-15T14:35:40;6.23;;;1.80;;
68377;SDS011;55322;48.146;11.516;2023-04-15T14:38:06;6.33;;;1.90;;
68377;SDS011;55322;48.146;11.516;2023-04-15T14:40:34;6.03;;;1.92;;
68377;SDS011;55322;48.146;11.516;2023-04-15T14:42:59;6.47;;;1.77;;
68377;SDS011;55322;48.146;11.516;2023-04-15T14:45:25;6.47;;;2.00;;